sensor_id;sensor_type;location;lat;lon;timestamp;pressure;altitude;pressure_sealevel;temperature;humidity
35419;BME280;21525;41.240;16.500;2023-01-29T00:02:09;101633.31;;;14.84;60.05
35419;BME280;21525;41.240;16.500;2023-01-29T00:04:35;101643.38;;;14.54;60.41
35419;BME280;21525;41.240;16.500;2023-01-29T00:07:01;101638.53;;;14.25;61.12
35419;BME280;21525;41.240;16.500;2023-01-29T00:09:27;101634.38;;;14.70;60.61
35419;BME280;21525;41.240;16.500;2023-01-29T00:11:53;101648.91;;;14.30;60.54
35419;BME280;21525;41.240;16.500;2023-01-29T00:14:18;101637.91;;;14.05;61.02
35419;BME280;21525;41.240;16.500;2023-01-29T00:16:44;101630.03;;;14.69;59.90
35419;BME280;21525;41.240;16.500;2023-01-29T00:19:10;101637.84;;;14.72;59.79
35419;BME280;21525;41.240;16.500;2023-01-29T00:21:36;101638.25;;;14.45;59.58
35419;BME280;21525;41.240;16.500;2023-01-29T00:24:02;101639.66;;;14.04;60.71
35419;BME280;21525;41.240;16.500;2023-01-29T00:26:29;101637.06;;;14.67;59.97
35419;BME280;21525;41.240;16.500;2023-01-29T00:28:56;101642.31;;;14.01;61.68
35419;BME280;21525;41.240;16.500;2023-01-29T00:31:23;101644.72;;;14.18;61.55
35419;BME280;21525;41.240;16.500;2023-01-29T00:33:50;101650.34;;;13.86;61.06
35419;BME280;21525;41.240;16.500;2023-01-29T00:36:18;101651.38;;;14.40;60.84
35419;BME280;21525;41.240;16.500;2023-01-29T00:38:44;101648.41;;;14.00;61.25
35419;BME280;21525;41.240;16.500;2023-01-29T00:41:19;101653.75;;;13.96;61.40
35419;BME280;21525;41.240;16.500;2023-01-29T00:44:05;101647.13;;;14.32;60.49
35419;BME280;21525;41.240;16.500;2023-01-29T00:46:50;101652.69;;;14.07;61.73
35419;BME280;21525;41.240;16.500;2023-01-29T00:49:16;101653.00;;;13.85;62.98
35419;BME280;21525;41.240;16.500;2023-01-29T00:51:42;101650.38;;;14.54;60.01
35419;BME280;21525;41.240;16.500;2023-01-29T00:54:08;101655.28;;;14.10;61.26
35419;BME280;21525;41.240;16.500;2023-01-29T00:56:35;101657.69;;;14.29;60.66
35419;BME280;21525;41.240;16.500;2023-01-29T00:59:02;101663.47;;;13.83;61.20
35419;BME280;21525;41.240;16.500;2023-01-29T01:01:28;101660.97;;;13.72;62.75
35419;BME280;21525;41.240;16.500;2023-01-29T01:04:12;101653.63;;;14.03;62.44
35419;BME280;21525;41.240;16.500;2023-01-29T01:06:39;101657.47;;;13.73;62.50
35419;BME280;21525;41.240;16.500;2023-01-29T01:09:07;101656.63;;;13.70;62.62
35419;BME280;21525;41.240;16.500;2023-01-29T01:11:51;101653.00;;;13.83;61.86
35419;BME280;21525;41.240;16.500;2023-01-29T01:14:19;101662.09;;;13.47;63.92
35419;BME280;21525;41.240;16.500;2023-01-29T01:16:45;101651.28;;;13.81;63.59
35419;BME280;21525;41.240;16.500;2023-01-29T01:19:12;101651.44;;;13.67;64.83
35419;BME280;21525;41.240;16.500;2023-01-29T01:21:39;101656.25;;;14.02;62.11
35419;BME280;21525;41.240;16.500;2023-01-29T01:24:05;101654.34;;;14.15;62.50
35419;BME280;21525;41.240;16.500;2023-01-29T01:26:31;101660.97;;;13.72;61.85
35419;BME280;21525;41.240;16.500;2023-01-29T01:28:58;101656.00;;;14.22;61.67
35419;BME280;21525;41.240;16.500;2023-01-29T01:31:24;101655.41;;;14.00;61.47
35419;BME280;21525;41.240;16.500;2023-01-29T01:33:50;101657.91;;;14.10;60.13
35419;BME280;21525;41.240;16.500;2023-01-29T01:36:16;101653.78;;;13.93;61.55
35419;BME280;21525;41.240;16.500;2023-01-29T01:38:43;101654.00;;;13.71;61.88
35419;BME280;21525;41.240;16.500;2023-01-29T01:41:13;101652.00;;;13.96;61.83
35419;BME280;21525;41.240;16.500;2023-01-29T01:43:55;101657.88;;;14.12;60.21
35419;BME280;21525;41.240;16.500;2023-01-29T01:46:28;101658.38;;;13.71;61.10
35419;BME280;21525;41.240;16.500;2023-01-29T01:49:17;101655.03;;;13.60;62.43
35419;BME280;21525;41.240;16.500;2023-01-29T01:51:45;101654.63;;;13.93;61.62
35419;BME280;21525;41.240;16.500;2023-01-29T01:54:22;101659.09;;;13.84;61.01
35419;BME280;21525;41.240;16.500;2023-01-29T01:56:54;101655.75;;;13.69;61.86
35419;BME280;21525;41.240;16.500;2023-01-29T01:59:31;101649.78;;;13.60;62.41
35419;BME280;21525;41.240;16.500;2023-01-29T02:01:58;101655.00;;;13.63;61.97
35419;BME280;21525;41.240;16.500;2023-01-29T02:04:45;101660.38;;;13.44;62.24
35419;BME280;21525;41.240;16.500;2023-01-29T02:07:31;101656.09;;;13.37;63.73
35419;BME280;21525;41.240;16.500;2023-01-29T02:10:17;101660.41;;;13.43;62.89
35419;BME280;21525;41.240;16.500;2023-01-29T02:12:44;101669.91;;;13.50;63.91
35419;BME280;21525;41.240;16.500;2023-01-29T02:15:11;101664.28;;;12.99;64.54
35419;BME280;21525;41.240;16.500;2023-01-29T02:17:37;101673.03;;;12.91;65.65
35419;BME280;21525;41.240;16.500;2023-01-29T02:31:08;101677.69;;;13.58;62.82
35419;BME280;21525;41.240;16.500;2023-01-29T02:36:48;101678.34;;;13.78;61.77
35419;BME280;21525;41.240;16.500;2023-01-29T02:44:46;101681.03;;;13.69;62.83
35419;BME280;21525;41.240;16.500;2023-01-29T02:47:33;101676.56;;;13.82;62.35
35419;BME280;21525;41.240;16.500;2023-01-29T02:52:47;101679.44;;;13.57;62.86
35419;BME280;21525;41.240;16.500;2023-01-29T02:55:32;101687.84;;;13.85;63.04
35419;BME280;21525;41.240;16.500;2023-01-29T02:58:12;101680.41;;;13.45;63.66
35419;BME280;21525;41.240;16.500;2023-01-29T03:00:42;101685.53;;;13.58;63.47
35419;BME280;21525;41.240;16.500;2023-01-29T03:03:29;101681.25;;;13.51;63.97
35419;BME280;21525;41.240;16.500;2023-01-29T03:08:35;101680.47;;;13.41;64.71
35419;BME280;21525;41.240;16.500;2023-01-29T03:11:10;101685.28;;;13.81;63.36
35419;BME280;21525;41.240;16.500;2023-01-29T03:19:02;101683.81;;;13.55;64.33
35419;BME280;21525;41.240;16.500;2023-01-29T03:21:34;101679.00;;;13.97;62.70
35419;BME280;21525;41.240;16.500;2023-01-29T03:24:24;101683.44;;;13.92;61.91
35419;BME280;21525;41.240;16.500;2023-01-29T03:27:11;101678.19;;;13.93;62.63
35419;BME280;21525;41.240;16.500;2023-01-29T03:29:57;101670.00;;;14.21;61.43
35419;BME280;21525;41.240;16.500;2023-01-29T03:33:08;101680.78;;;13.95;62.26
35419;BME280;21525;41.240;16.500;2023-01-29T03:35:45;101671.06;;;14.03;60.94
35419;BME280;21525;41.240;16.500;2023-01-29T03:38:14;101674.03;;;13.74;62.55
35419;BME280;21525;41.240;16.500;2023-01-29T03:40:51;101679.47;;;13.56;63.74
35419;BME280;21525;41.240;16.500;2023-01-29T03:46:10;101681.19;;;13.58;63.60
35419;BME280;21525;41.240;16.500;2023-01-29T03:48:50;101672.06;;;13.02;65.67
35419;BME280;21525;41.240;16.500;2023-01-29T03:51:26;101681.72;;;12.93;65.65
35419;BME280;21525;41.240;16.500;2023-01-29T03:54:11;101685.41;;;13.67;63.82
35419;BME280;21525;41.240;16.500;2023-01-29T03:56:53;101678.84;;;13.29;65.68
35419;BME280;21525;41.240;16.500;2023-01-29T04:02:12;101679.59;;;13.40;65.33
35419;BME280;21525;41.240;16.500;2023-01-29T04:04:43;101685.91;;;13.13;66.07
35419;BME280;21525;41.240;16.500;2023-01-29T04:07:18;101674.38;;;13.40;64.76
35419;BME280;21525;41.240;16.500;2023-01-29T04:09:58;101687.72;;;13.04;66.65
35419;BME280;21525;41.240;16.500;2023-01-29T04:12:32;101679.72;;;13.30;65.72
35419;BME280;21525;41.240;16.500;2023-01-29T04:15:01;101691.13;;;13.20;65.42
35419;BME280;21525;41.240;16.500;2023-01-29T04:17:36;101701.16;;;13.64;64.82
35419;BME280;21525;41.240;16.500;2023-01-29T04:20:10;101703.81;;;13.61;63.39
35419;BME280;21525;41.240;16.500;2023-01-29T04:22:38;101699.47;;;13.58;64.48
35419;BME280;21525;41.240;16.500;2023-01-29T04:25:09;101692.66;;;13.39;64.51
35419;BME280;21525;41.240;16.500;2023-01-29T04:30:23;101699.59;;;13.46;64.82
35419;BME280;21525;41.240;16.500;2023-01-29T04:39:22;101703.88;;;13.53;63.93
35419;BME280;21525;41.240;16.500;2023-01-29T04:42:43;101691.22;;;13.96;62.70
35419;BME280;21525;41.240;16.500;2023-01-29T04:50:43;101709.91;;;13.61;64.48
35419;BME280;21525;41.240;16.500;2023-01-29T04:53:27;101708.06;;;13.68;63.89
35419;BME280;21525;41.240;16.500;2023-01-29T04:58:51;101712.38;;;13.73;64.29
35419;BME280;21525;41.240;16.500;2023-01-29T05:01:21;101712.56;;;13.55;65.27
35419;BME280;21525;41.240;16.500;2023-01-29T05:03:52;101705.25;;;13.89;63.10
35419;BME280;21525;41.240;16.500;2023-01-29T05:06:20;101714.44;;;13.39;65.41
35419;BME280;21525;41.240;16.500;2023-01-29T05:08:48;101721.25;;;13.57;65.48
35419;BME280;21525;41.240;16.500;2023-01-29T05:11:17;101713.94;;;13.93;63.62
35419;BME280;21525;41.240;16.500;2023-01-29T05:13:43;101711.13;;;13.21;65.01
35419;BME280;21525;41.240;16.500;2023-01-29T05:16:23;101707.94;;;13.80;63.25
35419;BME280;21525;41.240;16.500;2023-01-29T05:18:50;101720.78;;;14.01;62.98
35419;BME280;21525;41.240;16.500;2023-01-29T05:21:16;101714.84;;;13.87;63.87
35419;BME280;21525;41.240;16.500;2023-01-29T05:23:43;101721.28;;;13.56;63.82
35419;BME280;21525;41.240;16.500;2023-01-29T05:26:23;101726.13;;;13.92;62.63
35419;BME280;21525;41.240;16.500;2023-01-29T05:29:08;101730.31;;;14.08;63.05
35419;BME280;21525;41.240;16.500;2023-01-29T05:31:33;101722.63;;;13.95;63.39
35419;BME280;21525;41.240;16.500;2023-01-29T05:33:59;101724.19;;;14.09;62.69
35419;BME280;21525;41.240;16.500;2023-01-29T05:36:25;101730.63;;;13.79;63.08
35419;BME280;21525;41.240;16.500;2023-01-29T05:38:51;101732.28;;;13.90;63.18
35419;BME280;21525;41.240;16.500;2023-01-29T05:41:17;101726.66;;;14.23;62.99
35419;BME280;21525;41.240;16.500;2023-01-29T05:43:43;101729.63;;;13.91;63.69
35419;BME280;21525;41.240;16.500;2023-01-29T05:46:08;101731.50;;;13.77;64.10
35419;BME280;21525;41.240;16.500;2023-01-29T05:48:35;101727.06;;;13.88;64.29
35419;BME280;21525;41.240;16.500;2023-01-29T05:51:02;101733.53;;;13.48;67.35
35419;BME280;21525;41.240;16.500;2023-01-29T05:53:29;101738.75;;;13.51;65.46
35419;BME280;21525;41.240;16.500;2023-01-29T05:55:55;101732.75;;;13.39;66.64
35419;BME280;21525;41.240;16.500;2023-01-29T05:58:24;101723.50;;;13.95;64.69
35419;BME280;21525;41.240;16.500;2023-01-29T06:00:49;101734.91;;;13.88;64.49
35419;BME280;21525;41.240;16.500;2023-01-29T06:03:15;101740.53;;;13.47;65.89
35419;BME280;21525;41.240;16.500;2023-01-29T06:05:41;101733.78;;;14.07;64.68
35419;BME280;21525;41.240;16.500;2023-01-29T06:08:07;101747.75;;;14.08;64.28
35419;BME280;21525;41.240;16.500;2023-01-29T06:10:33;101742.41;;;14.19;63.91
35419;BME280;21525;41.240;16.500;2023-01-29T06:12:59;101742.31;;;13.40;65.66
35419;BME280;21525;41.240;16.500;2023-01-29T06:15:25;101746.22;;;13.89;65.20
35419;BME280;21525;41.240;16.500;2023-01-29T06:17:54;101745.94;;;14.13;64.35
35419;BME280;21525;41.240;16.500;2023-01-29T06:20:20;101759.38;;;13.81;66.14
35419;BME280;21525;41.240;16.500;2023-01-29T06:22:46;101758.44;;;13.88;64.51
35419;BME280;21525;41.240;16.500;2023-01-29T06:25:12;101763.59;;;13.96;65.91
35419;BME280;21525;41.240;16.500;2023-01-29T06:27:38;101763.38;;;14.14;64.98
35419;BME280;21525;41.240;16.500;2023-01-29T06:30:04;101759.69;;;13.44;67.43
35419;BME280;21525;41.240;16.500;2023-01-29T06:32:30;101764.81;;;13.58;66.81
35419;BME280;21525;41.240;16.500;2023-01-29T06:34:56;101768.16;;;13.74;65.73
35419;BME280;21525;41.240;16.500;2023-01-29T06:37:22;101770.97;;;13.51;66.46
35419;BME280;21525;41.240;16.500;2023-01-29T06:39:48;101771.31;;;14.05;64.27
35419;BME280;21525;41.240;16.500;2023-01-29T06:42:13;101779.41;;;13.84;65.72
35419;BME280;21525;41.240;16.500;2023-01-29T06:44:39;101776.50;;;14.09;64.27
35419;BME280;21525;41.240;16.500;2023-01-29T06:47:05;101784.03;;;13.56;65.35
35419;BME280;21525;41.240;16.500;2023-01-29T06:49:31;101780.25;;;13.87;66.18
35419;BME280;21525;41.240;16.500;2023-01-29T06:51:56;101793.00;;;14.16;64.22
35419;BME280;21525;41.240;16.500;2023-01-29T06:54:22;101789.75;;;13.94;64.48
35419;BME280;21525;41.240;16.500;2023-01-29T06:56:48;101788.94;;;13.89;65.59
35419;BME280;21525;41.240;16.500;2023-01-29T06:59:14;101799.38;;;13.91;65.49
35419;BME280;21525;41.240;16.500;2023-01-29T07:01:40;101797.53;;;13.99;64.28
35419;BME280;21525;41.240;16.500;2023-01-29T07:04:07;101802.53;;;14.25;63.65
35419;BME280;21525;41.240;16.500;2023-01-29T07:06:34;101797.91;;;14.48;63.33
35419;BME280;21525;41.240;16.500;2023-01-29T07:09:01;101806.03;;;14.24;63.78
35419;BME280;21525;41.240;16.500;2023-01-29T07:11:27;101809.81;;;13.95;64.46
35419;BME280;21525;41.240;16.500;2023-01-29T07:13:53;101811.66;;;13.84;66.27
35419;BME280;21525;41.240;16.500;2023-01-29T07:16:19;101808.00;;;14.00;65.59
35419;BME280;21525;41.240;16.500;2023-01-29T07:18:46;101811.41;;;14.85;62.49
35419;BME280;21525;41.240;16.500;2023-01-29T07:21:12;101821.69;;;14.27;63.76
35419;BME280;21525;41.240;16.500;2023-01-29T07:23:38;101812.88;;;14.34;63.28
35419;BME280;21525;41.240;16.500;2023-01-29T07:26:05;101818.38;;;14.09;64.09
35419;BME280;21525;41.240;16.500;2023-01-29T07:28:36;101830.88;;;13.78;64.86
35419;BME280;21525;41.240;16.500;2023-01-29T07:31:03;101829.84;;;13.96;66.43
35419;BME280;21525;41.240;16.500;2023-01-29T07:33:29;101834.91;;;14.13;64.15
35419;BME280;21525;41.240;16.500;2023-01-29T07:35:55;101835.22;;;13.79;65.84
35419;BME280;21525;41.240;16.500;2023-01-29T07:38:21;101834.25;;;14.72;62.34
35419;BME280;21525;41.240;16.500;2023-01-29T07:40:47;101847.50;;;13.68;64.81
35419;BME280;21525;41.240;16.500;2023-01-29T07:43:13;101847.25;;;13.99;65.34
35419;BME280;21525;41.240;16.500;2023-01-29T07:45:39;101846.25;;;14.13;65.05
35419;BME280;21525;41.240;16.500;2023-01-29T07:48:06;101849.69;;;14.19;64.62
35419;BME280;21525;41.240;16.500;2023-01-29T07:50:34;101857.88;;;13.79;66.71
35419;BME280;21525;41.240;16.500;2023-01-29T07:53:00;101847.44;;;14.65;63.58
35419;BME280;21525;41.240;16.500;2023-01-29T07:55:26;101859.66;;;14.64;62.96
35419;BME280;21525;41.240;16.500;2023-01-29T07:57:56;101856.16;;;14.65;63.17
35419;BME280;21525;41.240;16.500;2023-01-29T08:00:22;101856.13;;;14.68;62.97
35419;BME280;21525;41.240;16.500;2023-01-29T08:02:48;101861.34;;;14.70;63.11
35419;BME280;21525;41.240;16.500;2023-01-29T08:05:14;101862.97;;;14.82;62.15
35419;BME280;21525;41.240;16.500;2023-01-29T08:07:40;101866.59;;;14.70;62.99
35419;BME280;21525;41.240;16.500;2023-01-29T08:10:06;101867.91;;;15.03;62.56
35419;BME280;21525;41.240;16.500;2023-01-29T08:12:31;101865.66;;;14.74;63.57
35419;BME280;21525;41.240;16.500;2023-01-29T08:14:57;101869.34;;;15.27;61.38
35419;BME280;21525;41.240;16.500;2023-01-29T08:17:23;101870.13;;;15.33;61.31
35419;BME280;21525;41.240;16.500;2023-01-29T08:19:49;101873.19;;;15.00;62.72
35419;BME280;21525;41.240;16.500;2023-01-29T08:22:15;101865.03;;;15.24;60.88
35419;BME280;21525;41.240;16.500;2023-01-29T08:24:41;101879.13;;;15.14;61.98
35419;BME280;21525;41.240;16.500;2023-01-29T08:27:07;101872.44;;;15.55;60.44
35419;BME280;21525;41.240;16.500;2023-01-29T08:29:33;101873.16;;;15.03;61.05
35419;BME280;21525;41.240;16.500;2023-01-29T08:31:59;101876.03;;;15.48;60.54
35419;BME280;21525;41.240;16.500;2023-01-29T08:34:25;101881.22;;;15.52;60.55
35419;BME280;21525;41.240;16.500;2023-01-29T08:36:52;101890.38;;;15.22;61.83
35419;BME280;21525;41.240;16.500;2023-01-29T08:39:18;101888.59;;;15.26;61.75
35419;BME280;21525;41.240;16.500;2023-01-29T08:41:44;101885.72;;;15.42;60.86
35419;BME280;21525;41.240;16.500;2023-01-29T08:44:10;101892.88;;;15.91;59.07
35419;BME280;21525;41.240;16.500;2023-01-29T08:46:36;101898.84;;;15.41;60.11
35419;BME280;21525;41.240;16.500;2023-01-29T08:49:02;101900.53;;;15.46;59.14
35419;BME280;21525;41.240;16.500;2023-01-29T08:51:28;101898.66;;;15.56;60.03
35419;BME280;21525;41.240;16.500;2023-01-29T08:53:54;101903.94;;;15.52;59.86
35419;BME280;21525;41.240;16.500;2023-01-29T08:56:20;101902.31;;;16.00;58.82
35419;BME280;21525;41.240;16.500;2023-01-29T08:58:46;101910.81;;;15.62;60.29
35419;BME280;21525;41.240;16.500;2023-01-29T09:01:12;101914.75;;;15.90;59.45
35419;BME280;21525;41.240;16.500;2023-01-29T09:03:38;101916.31;;;15.42;61.02
35419;BME280;21525;41.240;16.500;2023-01-29T09:06:07;101914.91;;;15.79;60.62
35419;BME280;21525;41.240;16.500;2023-01-29T09:08:33;101926.22;;;15.83;59.78
35419;BME280;21525;41.240;16.500;2023-01-29T09:10:59;101918.88;;;16.03;59.02
35419;BME280;21525;41.240;16.500;2023-01-29T09:13:25;101922.78;;;15.79;59.01
35419;BME280;21525;41.240;16.500;2023-01-29T09:15:51;101921.53;;;16.02;58.92
35419;BME280;21525;41.240;16.500;2023-01-29T09:18:17;101924.50;;;16.33;58.27
35419;BME280;21525;41.240;16.500;2023-01-29T09:20:44;101926.56;;;16.63;57.35
35419;BME280;21525;41.240;16.500;2023-01-29T09:23:10;101925.19;;;16.44;56.86
35419;BME280;21525;41.240;16.500;2023-01-29T09:25:35;101938.56;;;16.29;57.52
35419;BME280;21525;41.240;16.500;2023-01-29T09:28:02;101934.13;;;16.34;57.44
35419;BME280;21525;41.240;16.500;2023-01-29T09:30:28;101927.31;;;16.24;57.05
35419;BME280;21525;41.240;16.500;2023-01-29T09:32:54;101928.41;;;16.58;56.95
35419;BME280;21525;41.240;16.500;2023-01-29T09:35:23;101930.34;;;15.98;56.54
35419;BME280;21525;41.240;16.500;2023-01-29T09:37:50;101932.84;;;16.05;57.00
35419;BME280;21525;41.240;16.500;2023-01-29T09:43:10;101926.47;;;16.71;54.68
35419;BME280;21525;41.240;16.500;2023-01-29T09:45:54;101923.69;;;16.78;54.22
35419;BME280;21525;41.240;16.500;2023-01-29T09:48:26;101922.81;;;16.78;53.84
35419;BME280;21525;41.240;16.500;2023-01-29T09:50:54;101929.28;;;16.59;54.36
35419;BME280;21525;41.240;16.500;2023-01-29T09:56:11;101927.56;;;17.02;52.83
35419;BME280;21525;41.240;16.500;2023-01-29T09:58:39;101922.47;;;16.50;53.13
35419;BME280;21525;41.240;16.500;2023-01-29T10:01:15;101920.19;;;16.29;53.38
35419;BME280;21525;41.240;16.500;2023-01-29T10:25:25;101904.72;;;17.06;49.61
35419;BME280;21525;41.240;16.500;2023-01-29T10:27:53;101904.88;;;16.98;49.52
35419;BME280;21525;41.240;16.500;2023-01-29T10:32:48;101914.81;;;16.84;50.03
35419;BME280;21525;41.240;16.500;2023-01-29T10:35:23;101910.13;;;16.98;49.51
35419;BME280;21525;41.240;16.500;2023-01-29T10:37:53;101904.22;;;17.29;48.62
35419;BME280;21525;41.240;16.500;2023-01-29T10:40:32;101904.13;;;17.33;47.85
35419;BME280;21525;41.240;16.500;2023-01-29T10:43:19;101896.47;;;17.61;47.92
35419;BME280;21525;41.240;16.500;2023-01-29T10:48:57;101897.50;;;17.91;46.94
35419;BME280;21525;41.240;16.500;2023-01-29T10:51:37;101897.09;;;17.34;47.47
35419;BME280;21525;41.240;16.500;2023-01-29T10:54:39;101888.09;;;17.83;46.64
35419;BME280;21525;41.240;16.500;2023-01-29T10:57:17;101886.63;;;17.71;45.91
35419;BME280;21525;41.240;16.500;2023-01-29T11:02:19;101878.91;;;17.99;46.29
35419;BME280;21525;41.240;16.500;2023-01-29T11:04:47;101869.94;;;18.06;45.66
35419;BME280;21525;41.240;16.500;2023-01-29T11:07:16;101873.47;;;19.01;44.93
35419;BME280;21525;41.240;16.500;2023-01-29T11:10:16;101864.47;;;19.64;43.37
35419;BME280;21525;41.240;16.500;2023-01-29T11:12:45;101864.19;;;19.45;43.22
35419;BME280;21525;41.240;16.500;2023-01-29T11:15:29;101864.56;;;19.87;42.43
35419;BME280;21525;41.240;16.500;2023-01-29T11:18:14;101866.69;;;19.77;41.50
35419;BME280;21525;41.240;16.500;2023-01-29T11:20:41;101852.66;;;20.02;41.56
35419;BME280;21525;41.240;16.500;2023-01-29T11:23:29;101855.25;;;19.77;42.00
35419;BME280;21525;41.240;16.500;2023-01-29T11:25:56;101851.38;;;19.87;42.38
35419;BME280;21525;41.240;16.500;2023-01-29T11:28:42;101849.41;;;19.94;42.46
35419;BME280;21525;41.240;16.500;2023-01-29T11:33:43;101844.66;;;19.51;42.77
35419;BME280;21525;41.240;16.500;2023-01-29T11:36:20;101842.31;;;19.69;41.93
35419;BME280;21525;41.240;16.500;2023-01-29T11:38:46;101839.53;;;19.46;42.56
35419;BME280;21525;41.240;16.500;2023-01-29T11:41:15;101845.59;;;19.20;43.13
35419;BME280;21525;41.240;16.500;2023-01-29T11:43:46;101832.78;;;19.37;42.73
35419;BME280;21525;41.240;16.500;2023-01-29T11:46:14;101834.38;;;18.86;43.69
35419;BME280;21525;41.240;16.500;2023-01-29T11:48:45;101838.09;;;19.08;43.53
35419;BME280;21525;41.240;16.500;2023-01-29T11:51:23;101832.38;;;18.64;44.86
35419;BME280;21525;41.240;16.500;2023-01-29T11:54:01;101832.06;;;18.75;45.27
35419;BME280;21525;41.240;16.500;2023-01-29T11:56:33;101829.38;;;18.45;46.04
35419;BME280;21525;41.240;16.500;2023-01-29T11:59:04;101832.28;;;18.35;45.73
35419;BME280;21525;41.240;16.500;2023-01-29T12:01:36;101828.25;;;18.53;45.67
35419;BME280;21525;41.240;16.500;2023-01-29T12:04:19;101828.44;;;18.48;45.21
35419;BME280;21525;41.240;16.500;2023-01-29T12:06:46;101832.81;;;18.17;45.35
35419;BME280;21525;41.240;16.500;2023-01-29T12:09:19;101828.09;;;17.95;46.50
35419;BME280;21525;41.240;16.500;2023-01-29T12:11:45;101836.06;;;17.57;47.60
35419;BME280;21525;41.240;16.500;2023-01-29T12:14:28;101831.13;;;17.80;46.91
35419;BME280;21525;41.240;16.500;2023-01-29T12:17:20;101823.75;;;17.57;47.17
35419;BME280;21525;41.240;16.500;2023-01-29T12:19:58;101819.06;;;18.05;46.54
35419;BME280;21525;41.240;16.500;2023-01-29T12:30:49;101803.25;;;17.73;47.91
35419;BME280;21525;41.240;16.500;2023-01-29T12:38:48;101804.84;;;17.78;48.93
35419;BME280;21525;41.240;16.500;2023-01-29T12:41:35;101806.19;;;17.59;49.14
35419;BME280;21525;41.240;16.500;2023-01-29T12:44:17;101807.22;;;17.54;49.17
35419;BME280;21525;41.240;16.500;2023-01-29T12:46:55;101812.59;;;17.12;47.77
35419;BME280;21525;41.240;16.500;2023-01-29T12:49:24;101806.69;;;17.39;46.62
35419;BME280;21525;41.240;16.500;2023-01-29T12:55:04;101809.09;;;17.11;45.33
35419;BME280;21525;41.240;16.500;2023-01-29T13:00:34;101814.69;;;16.96;47.27
35419;BME280;21525;41.240;16.500;2023-01-29T13:03:12;101806.19;;;17.22;48.36
35419;BME280;21525;41.240;16.500;2023-01-29T13:05:53;101807.81;;;17.28;49.47
35419;BME280;21525;41.240;16.500;2023-01-29T13:08:26;101807.94;;;17.23;50.16
35419;BME280;21525;41.240;16.500;2023-01-29T13:10:55;101796.41;;;17.29;50.49
35419;BME280;21525;41.240;16.500;2023-01-29T13:13:43;101798.66;;;17.45;50.47
35419;BME280;21525;41.240;16.500;2023-01-29T13:16:19;101797.34;;;17.26;49.82
35419;BME280;21525;41.240;16.500;2023-01-29T13:18:57;101785.16;;;17.22;49.24
35419;BME280;21525;41.240;16.500;2023-01-29T13:21:30;101787.78;;;17.58;48.99
35419;BME280;21525;41.240;16.500;2023-01-29T13:24:24;101784.44;;;17.17;49.78
35419;BME280;21525;41.240;16.500;2023-01-29T13:26:50;101777.69;;;17.42;49.31
35419;BME280;21525;41.240;16.500;2023-01-29T13:29:24;101773.22;;;17.46;49.39
35419;BME280;21525;41.240;16.500;2023-01-29T13:31:55;101776.03;;;17.38;48.89
35419;BME280;21525;41.240;16.500;2023-01-29T13:36:53;101770.25;;;17.58;48.31
35419;BME280;21525;41.240;16.500;2023-01-29T13:39:30;101768.97;;;17.76;47.33
35419;BME280;21525;41.240;16.500;2023-01-29T13:41:59;101768.06;;;17.77;47.09
35419;BME280;21525;41.240;16.500;2023-01-29T13:44:35;101775.28;;;18.01;46.50
35419;BME280;21525;41.240;16.500;2023-01-29T13:47:08;101771.13;;;17.93;47.01
35419;BME280;21525;41.240;16.500;2023-01-29T13:49:44;101769.13;;;18.02;47.22
35419;BME280;21525;41.240;16.500;2023-01-29T13:52:15;101763.81;;;18.04;47.45
35419;BME280;21525;41.240;16.500;2023-01-29T13:54:51;101764.06;;;17.95;47.40
35419;BME280;21525;41.240;16.500;2023-01-29T14:02:46;101769.00;;;18.38;47.46
35419;BME280;21525;41.240;16.500;2023-01-29T14:07:55;101762.03;;;18.66;47.47
35419;BME280;21525;41.240;16.500;2023-01-29T14:10:22;101764.19;;;18.21;48.41
35419;BME280;21525;41.240;16.500;2023-01-29T14:12:53;101766.16;;;18.45;47.95
35419;BME280;21525;41.240;16.500;2023-01-29T14:15:22;101768.75;;;18.47;48.06
35419;BME280;21525;41.240;16.500;2023-01-29T14:17:56;101765.41;;;18.09;48.30
35419;BME280;21525;41.240;16.500;2023-01-29T14:20:31;101766.13;;;18.16;47.09
35419;BME280;21525;41.240;16.500;2023-01-29T14:22:58;101767.56;;;18.26;46.50
35419;BME280;21525;41.240;16.500;2023-01-29T14:25:31;101771.63;;;18.07;46.53
35419;BME280;21525;41.240;16.500;2023-01-29T14:27:59;101778.88;;;18.30;46.20
35419;BME280;21525;41.240;16.500;2023-01-29T14:30:29;101776.41;;;18.24;46.11
35419;BME280;21525;41.240;16.500;2023-01-29T14:32:56;101784.06;;;18.02;46.17
35419;BME280;21525;41.240;16.500;2023-01-29T14:35:27;101790.34;;;17.61;46.61
35419;BME280;21525;41.240;16.500;2023-01-29T14:37:59;101786.31;;;18.16;46.53
35419;BME280;21525;41.240;16.500;2023-01-29T14:40:28;101788.25;;;17.76;47.12
35419;BME280;21525;41.240;16.500;2023-01-29T14:43:02;101804.06;;;17.75;46.97
35419;BME280;21525;41.240;16.500;2023-01-29T14:45:30;101797.34;;;17.26;48.32
35419;BME280;21525;41.240;16.500;2023-01-29T14:52:58;101796.50;;;17.24;48.79
35419;BME280;21525;41.240;16.500;2023-01-29T14:58:01;101800.31;;;17.50;48.72
35419;BME280;21525;41.240;16.500;2023-01-29T15:00:39;101805.13;;;17.68;48.79
35419;BME280;21525;41.240;16.500;2023-01-29T15:03:17;101810.63;;;17.22;49.73
35419;BME280;21525;41.240;16.500;2023-01-29T15:05:44;101805.25;;;17.25;50.09
35419;BME280;21525;41.240;16.500;2023-01-29T15:11:00;101807.56;;;17.38;49.38
35419;BME280;21525;41.240;16.500;2023-01-29T15:16:55;101806.25;;;17.56;49.02